createdAt,value
2018-06-09T00:00:22.203Z,19.80
2018-06-09T00:02:50.812Z,19.70
2018-06-09T00:05:19.367Z,19.80
2018-06-09T00:07:47.979Z,19.90
2018-06-09T00:10:16.575Z,19.80
2018-06-09T00:12:45.239Z,19.70
2018-06-09T00:15:13.798Z,19.60
2018-06-09T00:17:42.391Z,19.60
2018-06-09T00:20:10.967Z,19.60
2018-06-09T00:25:07.786Z,19.50
2018-06-09T00:27:36.370Z,19.60
2018-06-09T00:30:05.051Z,19.50
2018-06-09T00:32:33.634Z,19.50
2018-06-09T00:35:02.191Z,19.40
2018-06-09T00:37:30.796Z,19.40
2018-06-09T00:39:59.385Z,19.40
2018-06-09T00:42:27.994Z,19.30
2018-06-09T00:44:56.595Z,19.40
2018-06-09T00:47:25.191Z,19.40
2018-06-09T00:49:53.758Z,19.50
2018-06-09T00:52:22.352Z,19.50
2018-06-09T00:57:19.185Z,19.40
2018-06-09T00:59:47.760Z,19.30
2018-06-09T01:02:16.366Z,19.30
2018-06-09T01:04:45.003Z,19.30
2018-06-09T01:07:13.571Z,19.30
2018-06-09T01:09:42.150Z,19.50
2018-06-09T01:12:10.774Z,19.50
2018-06-09T01:14:39.365Z,19.30
2018-06-09T01:17:07.976Z,19.20
2018-06-09T01:22:04.937Z,19.10
2018-06-09T01:24:33.517Z,19.30
2018-06-09T01:27:02.092Z,19.20
2018-06-09T01:31:58.911Z,19.30
2018-06-09T01:34:27.506Z,19.40
2018-06-09T01:36:56.061Z,19.10
2018-06-09T01:39:24.673Z,19.10
2018-06-09T01:41:53.244Z,19.20
2018-06-09T01:44:21.894Z,19.20
2018-06-09T01:46:50.459Z,19.30
2018-06-09T01:49:19.058Z,19.20
2018-06-09T01:51:47.613Z,19.40
2018-06-09T01:54:16.233Z,19.30
2018-06-09T01:56:44.802Z,19.40
2018-06-09T01:59:13.378Z,19.40
2018-06-09T02:01:41.930Z,19.40
2018-06-09T02:04:10.542Z,19.40
2018-06-09T02:06:39.123Z,19.50
2018-06-09T02:09:09.226Z,19.50
2018-06-09T02:11:37.823Z,19.50
2018-06-09T02:16:34.724Z,19.60
2018-06-09T02:19:03.319Z,19.50
2018-06-09T02:21:31.932Z,19.40
2018-06-09T02:24:00.533Z,19.40
2018-06-09T02:26:29.099Z,19.30
2018-06-09T02:28:57.710Z,19.30
2018-06-09T02:31:26.299Z,19.30
2018-06-09T02:33:54.895Z,19.30
2018-06-09T02:36:23.443Z,19.40
2018-06-09T02:38:52.025Z,19.40
2018-06-09T02:41:20.575Z,19.40
2018-06-09T02:43:49.162Z,19.30
2018-06-09T02:46:17.736Z,19.30
2018-06-09T02:48:46.378Z,19.50
2018-06-09T02:51:14.933Z,19.50
2018-06-09T02:53:43.491Z,19.50
2018-06-09T02:56:12.094Z,19.40
2018-06-09T02:58:40.653Z,19.30
2018-06-09T03:01:09.325Z,19.40
2018-06-09T03:03:37.890Z,19.30
2018-06-09T03:06:06.512Z,19.40
2018-06-09T03:08:35.063Z,19.40
2018-06-09T03:11:03.657Z,19.40
2018-06-09T03:13:32.245Z,19.30
2018-06-09T03:16:00.886Z,19.40
2018-06-09T03:18:29.443Z,19.30
2018-06-09T03:20:58.043Z,19.30
2018-06-09T03:23:26.604Z,19.30
2018-06-09T03:25:55.188Z,19.40
2018-06-09T03:28:23.772Z,19.30
2018-06-09T03:30:52.370Z,19.20
2018-06-09T03:33:20.947Z,19.30
2018-06-09T03:35:49.539Z,19.40
2018-06-09T03:38:18.091Z,19.30
2018-06-09T03:40:46.693Z,19.30
2018-06-09T03:43:15.334Z,19.20
2018-06-09T03:45:43.919Z,19.20
2018-06-09T03:48:12.503Z,19.20
2018-06-09T03:50:41.123Z,19.20
2018-06-09T03:53:09.717Z,19.20
2018-06-09T03:55:38.291Z,19.30
2018-06-09T03:58:06.950Z,19.30
2018-06-09T04:00:35.614Z,19.30
2018-06-09T04:03:04.211Z,19.30
2018-06-09T04:05:32.843Z,19.40
2018-06-09T04:08:01.395Z,19.30
2018-06-09T04:10:29.987Z,19.20
2018-06-09T04:12:58.574Z,19.20
2018-06-09T04:15:27.159Z,19.20
2018-06-09T04:17:55.715Z,19.30
2018-06-09T04:20:24.343Z,19.20
2018-06-09T04:22:52.914Z,19.30
2018-06-09T04:25:21.503Z,19.40
2018-06-09T04:27:50.086Z,19.40
2018-06-09T04:30:18.649Z,19.40
2018-06-09T04:32:47.271Z,19.20
2018-06-09T04:35:15.828Z,19.30
2018-06-09T04:37:44.419Z,19.40
2018-06-09T04:40:12.970Z,19.50
2018-06-09T04:42:41.545Z,19.50
2018-06-09T04:45:10.101Z,19.50
2018-06-09T04:47:38.719Z,19.50
2018-06-09T04:50:07.308Z,19.60
2018-06-09T04:52:35.898Z,19.70
2018-06-09T04:55:04.481Z,19.70
2018-06-09T04:57:33.194Z,19.80
2018-06-09T05:00:01.763Z,19.80
2018-06-09T05:02:30.362Z,19.90
2018-06-09T05:04:58.909Z,20.00
2018-06-09T05:07:27.498Z,20.10
2018-06-09T05:09:56.067Z,20.10
2018-06-09T05:12:24.704Z,20.30
2018-06-09T05:14:53.262Z,20.20
2018-06-09T05:17:21.858Z,20.30
2018-06-09T05:19:50.429Z,20.20
2018-06-09T05:22:19.042Z,20.30
2018-06-09T05:24:47.596Z,20.50
2018-06-09T05:29:44.407Z,20.60
2018-06-09T05:32:12.982Z,20.70
2018-06-09T05:34:41.547Z,20.70
2018-06-09T05:37:10.163Z,20.90
2018-06-09T05:39:38.721Z,21.20
2018-06-09T05:42:07.336Z,21.50
2018-06-09T05:44:35.900Z,21.60
2018-06-09T05:47:04.611Z,21.60
2018-06-09T05:49:33.205Z,21.60
2018-06-09T05:54:30.024Z,21.90
2018-06-09T05:56:58.602Z,22.20
2018-06-09T05:59:27.223Z,22.50
2018-06-09T06:01:55.810Z,23.00
2018-06-09T06:04:24.419Z,23.50
2018-06-09T06:06:52.987Z,23.90
2018-06-09T06:09:21.575Z,24.30
2018-06-09T06:14:18.386Z,25.50
2018-06-09T06:16:46.983Z,25.80
2018-06-09T06:19:15.550Z,26.20
2018-06-09T06:21:44.213Z,26.70
2018-06-09T06:24:12.781Z,27.00
2018-06-09T06:26:41.358Z,27.40
2018-06-09T06:29:09.937Z,27.80
2018-06-09T06:31:38.516Z,28.10
2018-06-09T06:34:07.090Z,28.40
2018-06-09T06:36:35.654Z,28.70
2018-06-09T06:39:06.569Z,29.00
2018-06-09T06:41:35.114Z,29.30
2018-06-09T06:44:03.715Z,29.50
2018-06-09T06:46:32.271Z,29.70
2018-06-09T06:49:00.934Z,30.00
2018-06-09T06:51:29.502Z,30.30
2018-06-09T06:53:58.103Z,30.60
2018-06-09T06:56:26.658Z,30.80
2018-06-09T06:58:55.271Z,31.00
2018-06-09T07:03:52.075Z,31.40
2018-06-09T07:06:20.729Z,31.70
2018-06-09T07:08:49.277Z,32.00
2018-06-09T07:11:17.851Z,32.30
2018-06-09T07:13:46.430Z,32.50
2018-06-09T07:16:15.012Z,32.50
2018-06-09T07:18:43.587Z,33.00
2018-06-09T07:21:12.197Z,33.20
2018-06-09T07:23:40.763Z,33.40
2018-06-09T07:26:09.389Z,33.50
2018-06-09T07:28:37.931Z,33.80
2018-06-09T07:31:06.514Z,33.80
2018-06-09T07:33:35.094Z,34.20
2018-06-09T07:36:03.798Z,34.50
2018-06-09T07:38:32.346Z,34.60
2018-06-09T07:41:00.942Z,34.70
2018-06-09T07:43:29.559Z,34.80
2018-06-09T07:45:58.140Z,35.00
2018-06-09T07:48:26.771Z,35.30
2018-06-09T07:50:55.376Z,35.70
2018-06-09T07:53:24.132Z,35.80
2018-06-09T07:55:52.729Z,35.70
2018-06-09T07:58:21.309Z,35.30
2018-06-09T08:00:49.908Z,35.40
2018-06-09T08:03:18.498Z,35.70
2018-06-09T08:05:47.098Z,35.30
2018-06-09T08:08:15.717Z,35.60
2018-06-09T08:10:44.338Z,35.80
2018-06-09T08:13:12.919Z,36.30
2018-06-09T08:15:41.507Z,36.30
2018-06-09T08:20:38.346Z,36.80
2018-06-09T08:23:06.928Z,36.70
2018-06-09T08:25:35.542Z,35.90
2018-06-09T08:28:04.143Z,36.30
2018-06-09T08:33:00.974Z,36.60
2018-06-09T08:35:29.547Z,36.40
2018-06-09T08:37:58.182Z,36.50
2018-06-09T08:40:26.742Z,36.40
2018-06-09T08:42:55.338Z,36.60
2018-06-09T08:47:52.193Z,37.10
2018-06-09T08:50:20.745Z,37.00
2018-06-09T08:52:49.346Z,37.30
2018-06-09T08:55:17.973Z,37.30
2018-06-09T08:57:46.570Z,37.00
2018-06-09T09:00:15.130Z,37.10
2018-06-09T09:02:43.783Z,37.00
2018-06-09T09:05:12.375Z,36.70
2018-06-09T09:07:40.983Z,37.00
2018-06-09T09:10:09.547Z,37.30
2018-06-09T09:12:38.189Z,37.20
2018-06-09T09:15:06.794Z,37.70
2018-06-09T09:17:35.437Z,37.60
2018-06-09T09:20:04.094Z,37.50
2018-06-09T09:22:32.674Z,37.10
2018-06-09T09:25:01.229Z,36.70
2018-06-09T09:27:29.814Z,36.80
2018-06-09T09:29:58.379Z,37.00
2018-06-09T09:32:26.955Z,37.20
2018-06-09T09:34:55.549Z,37.40
2018-06-09T09:37:24.140Z,37.80
2018-06-09T09:39:52.731Z,37.60
2018-06-09T09:42:21.287Z,37.60
2018-06-09T09:44:50.478Z,37.80
2018-06-09T09:47:19.053Z,38.20
2018-06-09T09:49:48.179Z,38.20
2018-06-09T09:52:16.774Z,38.50
2018-06-09T09:54:45.422Z,38.70
2018-06-09T09:57:14.004Z,39.10
2018-06-09T09:59:42.654Z,38.90
2018-06-09T10:02:11.223Z,39.00
2018-06-09T10:04:39.850Z,39.40
2018-06-09T10:07:08.436Z,39.30
2018-06-09T10:09:37.034Z,39.70
2018-06-09T10:12:06.532Z,39.80
2018-06-09T10:14:35.238Z,39.50
2018-06-09T10:17:04.195Z,39.50
2018-06-09T10:19:32.799Z,39.10
2018-06-09T10:22:01.395Z,39.00
2018-06-09T10:24:29.966Z,38.70
2018-06-09T10:26:58.561Z,38.50
2018-06-09T10:29:27.153Z,38.00
2018-06-09T10:31:55.705Z,37.80
2018-06-09T10:34:24.287Z,37.40
2018-06-09T10:36:52.852Z,37.50
2018-06-09T10:39:21.444Z,37.40
2018-06-09T10:41:50.023Z,37.30
2018-06-09T10:44:18.599Z,37.10
2018-06-09T10:46:47.269Z,36.90
2018-06-09T10:49:15.850Z,36.80
2018-06-09T10:51:44.432Z,36.50
2018-06-09T10:54:13.016Z,36.40
2018-06-09T10:56:41.601Z,36.10
2018-06-09T10:59:10.215Z,36.30
2018-06-09T11:01:38.762Z,36.20
2018-06-09T11:04:07.437Z,36.10
2018-06-09T11:06:36.487Z,35.80
2018-06-09T11:09:07.120Z,35.80
2018-06-09T11:11:35.750Z,35.00
2018-06-09T11:14:04.358Z,34.80
2018-06-09T11:16:32.967Z,34.80
2018-06-09T11:19:01.555Z,34.80
2018-06-09T11:21:30.165Z,34.80
2018-06-09T11:23:58.753Z,34.90
2018-06-09T11:26:27.377Z,34.80
2018-06-09T11:28:55.963Z,34.50
2018-06-09T11:31:25.368Z,34.60
2018-06-09T11:33:53.947Z,34.50
2018-06-09T11:36:22.575Z,34.50
2018-06-09T11:38:51.146Z,34.30
2018-06-09T11:41:19.742Z,34.40
2018-06-09T11:43:48.298Z,34.40
2018-06-09T11:46:16.947Z,34.30
2018-06-09T11:48:47.300Z,34.20
2018-06-09T11:51:15.906Z,34.10
2018-06-09T11:53:44.494Z,33.90
2018-06-09T11:56:13.110Z,33.50
2018-06-09T12:01:10.815Z,33.10
2018-06-09T12:03:39.401Z,32.90
2018-06-09T12:06:08.001Z,32.80
2018-06-09T12:08:36.743Z,32.50
2018-06-09T12:11:05.428Z,32.00
2018-06-09T12:13:34.031Z,31.90
2018-06-09T12:16:02.643Z,31.80
2018-06-09T12:18:31.222Z,31.70
2018-06-09T12:20:59.844Z,31.30
2018-06-09T12:23:28.398Z,31.20
2018-06-09T12:25:56.984Z,30.80
2018-06-09T12:28:25.547Z,30.40
2018-06-09T12:30:54.154Z,30.50
2018-06-09T12:33:22.739Z,30.40
2018-06-09T12:35:51.338Z,30.20
2018-06-09T12:38:19.954Z,30.10
2018-06-09T12:40:48.547Z,30.30
2018-06-09T12:43:17.236Z,30.40
2018-06-09T12:45:45.873Z,30.20
2018-06-09T12:48:14.474Z,29.90
2018-06-09T12:50:43.059Z,29.90
2018-06-09T12:53:11.688Z,29.70
2018-06-09T12:55:40.267Z,29.40
2018-06-09T12:58:08.871Z,29.10
2018-06-09T13:00:37.501Z,28.60
2018-06-09T13:03:06.146Z,28.60
2018-06-09T13:05:34.798Z,28.90
2018-06-09T13:08:03.495Z,29.20
2018-06-09T13:10:32.092Z,29.10
2018-06-09T13:13:00.743Z,29.10
2018-06-09T13:15:29.339Z,29.20
2018-06-09T13:17:57.966Z,29.10
2018-06-09T13:22:54.824Z,29.10
2018-06-09T13:25:23.542Z,29.30
2018-06-09T13:27:52.143Z,29.80
2018-06-09T13:30:20.810Z,30.00
2018-06-09T13:32:49.395Z,30.30
2018-06-09T13:35:18.047Z,30.50
2018-06-09T13:37:46.696Z,30.50
2018-06-09T13:40:15.271Z,30.60
2018-06-09T13:42:43.888Z,30.70
2018-06-09T13:45:12.532Z,30.40
2018-06-09T13:47:41.135Z,30.60
2018-06-09T13:50:09.711Z,30.60
2018-06-09T13:52:38.292Z,30.60
2018-06-09T13:55:06.882Z,30.60
2018-06-09T13:57:35.474Z,30.70
2018-06-09T14:00:04.186Z,30.70
2018-06-09T14:02:32.797Z,30.50
2018-06-09T14:05:01.362Z,30.30
2018-06-09T14:07:29.994Z,29.90
2018-06-09T14:09:58.586Z,30.00
2018-06-09T14:12:27.242Z,29.80
2018-06-09T14:14:55.971Z,29.60
2018-06-09T14:17:25.026Z,29.50
2018-06-09T14:19:54.158Z,29.20
2018-06-09T14:22:23.149Z,29.30
2018-06-09T14:24:51.804Z,29.20
2018-06-09T14:27:20.379Z,29.20
2018-06-09T14:29:48.985Z,29.20
2018-06-09T14:32:17.539Z,29.20
2018-06-09T14:34:46.241Z,29.00
2018-06-09T14:37:14.818Z,28.70
2018-06-09T14:39:43.423Z,28.40
2018-06-09T14:42:12.011Z,28.40
2018-06-09T14:44:40.618Z,28.60
2018-06-09T14:49:37.750Z,28.00
2018-06-09T14:52:06.423Z,28.10
2018-06-09T14:54:35.019Z,28.20
2018-06-09T14:57:03.610Z,28.20
2018-06-09T14:59:32.574Z,28.30
2018-06-09T15:02:01.564Z,28.30
2018-06-09T15:04:30.147Z,28.10
2018-06-09T15:06:59.175Z,28.20
2018-06-09T15:09:27.840Z,28.20
2018-06-09T15:11:56.408Z,28.20
2018-06-09T15:14:25.092Z,28.20
2018-06-09T15:16:53.879Z,28.30
2018-06-09T15:19:22.495Z,28.30
2018-06-09T15:21:51.386Z,28.30
2018-06-09T15:24:20.022Z,28.20
2018-06-09T15:26:48.587Z,28.20
2018-06-09T15:31:45.410Z,28.00
2018-06-09T15:34:13.998Z,28.00
2018-06-09T15:36:42.557Z,28.00
2018-06-09T15:39:11.175Z,27.90
2018-06-09T15:41:39.816Z,27.50
2018-06-09T15:44:08.400Z,27.20
2018-06-09T15:46:37.008Z,26.90
2018-06-09T15:49:05.586Z,26.60
2018-06-09T15:51:34.240Z,26.30
2018-06-09T15:54:02.976Z,25.80
2018-06-09T15:56:31.557Z,25.60
2018-06-09T15:59:00.231Z,25.50
2018-06-09T16:01:28.852Z,25.30
2018-06-09T16:03:57.415Z,24.80
2018-06-09T16:06:25.993Z,24.70
2018-06-09T16:08:54.601Z,24.50
2018-06-09T16:11:23.185Z,24.50
2018-06-09T16:16:20.062Z,23.50
2018-06-09T16:18:48.623Z,23.20
2018-06-09T16:21:17.256Z,22.90
2018-06-09T16:23:45.879Z,23.10
2018-06-09T16:26:14.479Z,23.20
2018-06-09T16:28:43.067Z,23.20
2018-06-09T16:31:11.674Z,23.20
2018-06-09T16:33:40.262Z,23.40
2018-06-09T16:36:08.855Z,23.40
2018-06-09T16:38:37.439Z,23.30
2018-06-09T16:41:06.167Z,23.30
2018-06-09T16:43:34.744Z,23.30
2018-06-09T16:46:03.380Z,23.30
2018-06-09T16:48:31.956Z,23.50
2018-06-09T16:51:00.566Z,23.40
2018-06-09T16:53:29.518Z,23.20
2018-06-09T16:55:58.152Z,23.50
2018-06-09T16:58:26.818Z,23.40
2018-06-09T17:00:55.481Z,23.10
2018-06-09T17:03:24.087Z,23.20
2018-06-09T17:05:52.759Z,23.30
2018-06-09T17:08:21.491Z,23.30
2018-06-09T17:10:50.131Z,23.20
2018-06-09T17:13:18.774Z,23.00
2018-06-09T17:15:47.410Z,22.80
2018-06-09T17:18:16.037Z,22.80
2018-06-09T17:20:44.631Z,22.90
2018-06-09T17:23:13.236Z,22.90
2018-06-09T17:25:41.789Z,22.40
2018-06-09T17:28:10.371Z,22.40
2018-06-09T17:30:38.946Z,22.60
2018-06-09T17:33:07.538Z,22.80
2018-06-09T17:38:04.432Z,22.80
2018-06-09T17:40:33.038Z,22.90
2018-06-09T17:43:01.677Z,22.80
2018-06-09T17:45:30.287Z,22.70
2018-06-09T17:47:58.922Z,22.60
2018-06-09T17:50:27.826Z,22.60
2018-06-09T17:52:56.445Z,22.70
2018-06-09T17:55:25.033Z,22.50
2018-06-09T17:57:53.646Z,22.70
2018-06-09T18:00:22.215Z,22.70
2018-06-09T18:02:50.850Z,22.80
2018-06-09T18:05:19.443Z,22.80
2018-06-09T18:07:48.073Z,22.60
2018-06-09T18:10:16.639Z,22.60
2018-06-09T18:12:45.367Z,22.60
2018-06-09T18:15:13.958Z,22.50
2018-06-09T18:17:42.603Z,22.70
2018-06-09T18:20:11.205Z,22.60
2018-06-09T18:22:39.818Z,22.60
2018-06-09T18:25:09.310Z,22.70
2018-06-09T18:30:06.348Z,22.50
2018-06-09T18:32:34.955Z,22.40
2018-06-09T18:35:03.614Z,22.40
2018-06-09T18:37:32.231Z,22.50
2018-06-09T18:40:00.794Z,22.30
2018-06-09T18:42:29.372Z,22.30
2018-06-09T18:44:57.984Z,22.20
2018-06-09T18:49:54.974Z,22.20
2018-06-09T18:52:23.589Z,22.20
2018-06-09T18:54:52.179Z,22.20
2018-06-09T18:57:20.778Z,22.20
2018-06-09T18:59:49.418Z,22.20
2018-06-09T19:02:18.024Z,22.00
2018-06-09T19:04:46.691Z,22.10
2018-06-09T19:07:15.307Z,22.30
2018-06-09T19:09:43.911Z,22.30
2018-06-09T19:12:12.783Z,22.20
2018-06-09T19:14:41.441Z,22.20
2018-06-09T19:17:10.464Z,22.20
2018-06-09T19:19:39.113Z,22.10
2018-06-09T19:22:07.709Z,22.20
2018-06-09T19:24:36.327Z,22.10
2018-06-09T19:27:05.011Z,22.20
2018-06-09T19:29:33.611Z,22.20
2018-06-09T19:32:02.204Z,22.30
2018-06-09T19:34:30.819Z,22.30
2018-06-09T19:36:59.431Z,22.10
2018-06-09T19:39:28.206Z,22.10
2018-06-09T19:41:56.856Z,22.20
2018-06-09T19:44:26.550Z,22.10
2018-06-09T19:46:55.149Z,22.00
2018-06-09T19:49:24.694Z,22.00
2018-06-09T19:51:53.298Z,22.10
2018-06-09T19:56:50.130Z,22.00
2018-06-09T19:59:18.760Z,21.70
2018-06-09T20:01:47.316Z,21.70
2018-06-09T20:04:15.960Z,21.50
2018-06-09T20:06:44.543Z,21.60
2018-06-09T20:09:13.226Z,21.60
2018-06-09T20:11:41.869Z,21.60
2018-06-09T20:14:11.033Z,21.40
2018-06-09T20:16:39.658Z,21.50
2018-06-09T20:19:08.247Z,21.60
2018-06-09T20:21:36.858Z,21.50
2018-06-09T20:24:05.473Z,21.60
2018-06-09T20:26:34.109Z,21.60
2018-06-09T20:29:02.782Z,21.60
2018-06-09T20:31:31.527Z,21.70
2018-06-09T20:34:00.107Z,21.60
2018-06-09T20:36:28.738Z,21.40
2018-06-09T20:38:57.429Z,21.30
2018-06-09T20:41:26.115Z,21.30
2018-06-09T20:43:54.739Z,21.40
2018-06-09T20:46:23.409Z,21.60
2018-06-09T20:48:52.177Z,21.40
2018-06-09T20:51:20.871Z,21.20
2018-06-09T20:53:49.522Z,21.30
2018-06-09T20:56:18.128Z,21.50
2018-06-09T20:58:46.740Z,21.30
2018-06-09T21:01:15.371Z,21.30
2018-06-09T21:03:43.963Z,21.40
2018-06-09T21:06:12.611Z,21.40
2018-06-09T21:08:41.190Z,21.10
2018-06-09T21:11:09.834Z,21.10
2018-06-09T21:13:38.421Z,21.00
2018-06-09T21:16:07.087Z,21.00
2018-06-09T21:18:35.694Z,21.20
2018-06-09T21:21:04.312Z,21.20
2018-06-09T21:23:32.994Z,21.10
2018-06-09T21:26:01.691Z,21.00
2018-06-09T21:28:34.453Z,20.90
2018-06-09T21:31:08.281Z,21.00
2018-06-09T21:33:53.248Z,20.80
2018-06-09T21:36:27.877Z,20.80
2018-06-09T21:39:04.743Z,20.90
2018-06-09T21:41:38.562Z,20.90
2018-06-09T21:44:12.532Z,20.90
2018-06-09T21:46:47.520Z,21.00
2018-06-09T21:49:17.252Z,21.00
2018-06-09T21:51:45.873Z,20.90
2018-06-09T21:54:14.486Z,21.00
2018-06-09T21:56:43.085Z,20.90
2018-06-09T21:59:11.667Z,21.10
2018-06-09T22:01:40.248Z,20.90
2018-06-09T22:04:08.843Z,20.80
2018-06-09T22:06:37.477Z,20.90
2018-06-09T22:09:06.411Z,20.70
2018-06-09T22:11:34.993Z,20.80
2018-06-09T22:14:03.652Z,20.70
2018-06-09T22:16:32.211Z,20.80
2018-06-09T22:19:00.822Z,20.80
2018-06-09T22:21:29.422Z,20.80
2018-06-09T22:23:57.997Z,20.80
2018-06-09T22:26:26.611Z,20.80
2018-06-09T22:28:55.240Z,20.70
2018-06-09T22:31:23.829Z,20.70
2018-06-09T22:36:20.695Z,20.80
2018-06-09T22:38:49.360Z,20.70
2018-06-09T22:41:17.937Z,20.80
2018-06-09T22:43:46.566Z,20.70
2018-06-09T22:46:15.176Z,20.80
2018-06-09T22:48:43.779Z,20.70
2018-06-09T22:51:12.393Z,20.60
2018-06-09T22:53:41.025Z,20.50
2018-06-09T22:56:09.610Z,20.50
2018-06-09T22:58:38.214Z,20.60
2018-06-09T23:01:06.863Z,20.40
2018-06-09T23:03:35.476Z,20.50
2018-06-09T23:06:04.104Z,20.40
2018-06-09T23:08:35.408Z,20.50
2018-06-09T23:11:04.003Z,20.40
2018-06-09T23:13:32.634Z,20.40
2018-06-09T23:16:01.235Z,20.30
2018-06-09T23:18:29.816Z,20.30
2018-06-09T23:20:58.398Z,20.40
2018-06-09T23:23:26.980Z,20.40
2018-06-09T23:25:55.562Z,20.40
2018-06-09T23:28:24.126Z,20.40
2018-06-09T23:30:52.756Z,20.40
2018-06-09T23:33:21.319Z,20.30
2018-06-09T23:35:49.942Z,20.30
2018-06-09T23:38:18.507Z,20.10
2018-06-09T23:40:47.116Z,20.00
2018-06-09T23:43:15.748Z,20.10
2018-06-09T23:45:44.338Z,20.30
2018-06-09T23:48:12.899Z,20.10
2018-06-09T23:50:41.502Z,20.10
2018-06-09T23:53:10.072Z,20.10
2018-06-09T23:55:38.682Z,20.00
2018-06-09T23:58:07.267Z,20.00
